sensor_id;sensor_type;location;lat;lon;timestamp;P1;durP1;ratioP1;P2;durP2;ratioP2
71383;SDS011;67558;52.166;5.004;2023-07-31T00:02:09;29.48;;;28.45;;
71383;SDS011;67558;52.166;5.004;2023-07-31T00:04:35;34.58;;;33.38;;
71383;SDS011;67558;52.166;5.004;2023-07-31T00:07:01;26.98;;;26.15;;
71383;SDS011;67558;52.166;5.004;2023-07-31T00:09:29;31.23;;;30.08;;
71383;SDS011;67558;52.166;5.004;2023-07-31T00:11:55;25.95;;;25.10;;
71383;SDS011;67558;52.166;5.004;2023-07-31T00:14:21;28.85;;;27.80;;
71383;SDS011;67558;52.166;5.004;2023-07-31T00:16:47;31.33;;;29.88;;
71383;SDS011;67558;52.166;5.004;2023-07-31T00:19:13;30.70;;;28.90;;
71383;SDS011;67558;52.166;5.004;2023-07-31T00:21:39;29.52;;;27.27;;
71383;SDS011;67558;52.166;5.004;2023-07-31T00:24:05;31.05;;;29.27;;
71383;SDS011;67558;52.166;5.004;2023-07-31T00:26:31;33.47;;;31.23;;
71383;SDS011;67558;52.166;5.004;2023-07-31T00:28:57;32.60;;;30.40;;
71383;SDS011;67558;52.166;5.004;2023-07-31T00:31:23;29.85;;;27.98;;
71383;SDS011;67558;52.166;5.004;2023-07-31T00:33:49;33.42;;;30.77;;
71383;SDS011;67558;52.166;5.004;2023-07-31T00:36:15;29.67;;;27.58;;
71383;SDS011;67558;52.166;5.004;2023-07-31T00:38:41;36.90;;;34.40;;
71383;SDS011;67558;52.166;5.004;2023-07-31T00:41:07;28.85;;;26.98;;
71383;SDS011;67558;52.166;5.004;2023-07-31T00:43:33;30.58;;;28.73;;
71383;SDS011;67558;52.166;5.004;2023-07-31T00:45:59;34.90;;;32.35;;
71383;SDS011;67558;52.166;5.004;2023-07-31T00:48:26;32.53;;;30.65;;
71383;SDS011;67558;52.166;5.004;2023-07-31T00:50:52;32.78;;;30.85;;
71383;SDS011;67558;52.166;5.004;2023-07-31T00:53:18;28.77;;;27.05;;
71383;SDS011;67558;52.166;5.004;2023-07-31T00:55:43;26.33;;;24.92;;
71383;SDS011;67558;52.166;5.004;2023-07-31T00:58:10;30.40;;;28.88;;
71383;SDS011;67558;52.166;5.004;2023-07-31T01:00:36;30.38;;;29.02;;
71383;SDS011;67558;52.166;5.004;2023-07-31T01:03:02;27.65;;;26.40;;
71383;SDS011;67558;52.166;5.004;2023-07-31T01:05:54;27.13;;;25.77;;
71383;SDS011;67558;52.166;5.004;2023-07-31T01:10:50;30.17;;;28.77;;
71383;SDS011;67558;52.166;5.004;2023-07-31T01:13:22;31.25;;;29.98;;
71383;SDS011;67558;52.166;5.004;2023-07-31T01:15:48;31.45;;;29.95;;
71383;SDS011;67558;52.166;5.004;2023-07-31T01:18:14;29.73;;;27.98;;
71383;SDS011;67558;52.166;5.004;2023-07-31T01:20:41;29.80;;;27.98;;
71383;SDS011;67558;52.166;5.004;2023-07-31T01:24:16;32.00;;;30.33;;
71383;SDS011;67558;52.166;5.004;2023-07-31T01:26:33;34.17;;;32.30;;
71383;SDS011;67558;52.166;5.004;2023-07-31T01:29:03;32.45;;;30.15;;
71383;SDS011;67558;52.166;5.004;2023-07-31T01:31:38;26.40;;;24.80;;
71383;SDS011;67558;52.166;5.004;2023-07-31T01:34:06;35.40;;;33.35;;
71383;SDS011;67558;52.166;5.004;2023-07-31T01:36:35;32.78;;;30.65;;
71383;SDS011;67558;52.166;5.004;2023-07-31T01:39:01;36.00;;;34.20;;
71383;SDS011;67558;52.166;5.004;2023-07-31T01:41:27;35.67;;;33.58;;
71383;SDS011;67558;52.166;5.004;2023-07-31T01:43:53;26.63;;;24.92;;
71383;SDS011;67558;52.166;5.004;2023-07-31T01:46:19;29.77;;;28.20;;
71383;SDS011;67558;52.166;5.004;2023-07-31T01:48:45;30.88;;;28.50;;
71383;SDS011;67558;52.166;5.004;2023-07-31T01:51:11;32.45;;;30.48;;
71383;SDS011;67558;52.166;5.004;2023-07-31T01:53:37;31.42;;;29.63;;
71383;SDS011;67558;52.166;5.004;2023-07-31T01:56:03;29.92;;;28.25;;
71383;SDS011;67558;52.166;5.004;2023-07-31T01:58:28;28.83;;;27.27;;
71383;SDS011;67558;52.166;5.004;2023-07-31T02:00:54;29.33;;;27.85;;
71383;SDS011;67558;52.166;5.004;2023-07-31T02:03:20;29.35;;;27.55;;
71383;SDS011;67558;52.166;5.004;2023-07-31T02:05:47;29.98;;;28.27;;
71383;SDS011;67558;52.166;5.004;2023-07-31T02:08:13;30.77;;;28.88;;
71383;SDS011;67558;52.166;5.004;2023-07-31T02:10:39;30.98;;;29.20;;
71383;SDS011;67558;52.166;5.004;2023-07-31T02:13:05;29.05;;;27.45;;
71383;SDS011;67558;52.166;5.004;2023-07-31T02:15:31;27.85;;;25.63;;
71383;SDS011;67558;52.166;5.004;2023-07-31T02:17:57;31.95;;;30.23;;
71383;SDS011;67558;52.166;5.004;2023-07-31T02:20:23;30.30;;;28.23;;
71383;SDS011;67558;52.166;5.004;2023-07-31T02:22:49;34.35;;;31.92;;
71383;SDS011;67558;52.166;5.004;2023-07-31T02:25:15;31.17;;;29.38;;
71383;SDS011;67558;52.166;5.004;2023-07-31T02:27:41;31.65;;;29.60;;
71383;SDS011;67558;52.166;5.004;2023-07-31T02:30:07;33.28;;;30.38;;
71383;SDS011;67558;52.166;5.004;2023-07-31T02:32:33;32.40;;;30.55;;
71383;SDS011;67558;52.166;5.004;2023-07-31T02:34:59;29.00;;;27.05;;
71383;SDS011;67558;52.166;5.004;2023-07-31T02:37:26;34.60;;;32.28;;
71383;SDS011;67558;52.166;5.004;2023-07-31T02:39:54;35.88;;;33.30;;
71383;SDS011;67558;52.166;5.004;2023-07-31T02:42:20;32.35;;;30.58;;
71383;SDS011;67558;52.166;5.004;2023-07-31T02:44:46;27.98;;;25.88;;
71383;SDS011;67558;52.166;5.004;2023-07-31T02:47:12;31.60;;;29.58;;
71383;SDS011;67558;52.166;5.004;2023-07-31T02:49:38;30.20;;;27.98;;
71383;SDS011;67558;52.166;5.004;2023-07-31T02:52:04;32.38;;;30.45;;
71383;SDS011;67558;52.166;5.004;2023-07-31T02:54:31;30.98;;;28.85;;
71383;SDS011;67558;52.166;5.004;2023-07-31T02:56:57;30.88;;;29.02;;
71383;SDS011;67558;52.166;5.004;2023-07-31T02:59:23;33.47;;;30.58;;
71383;SDS011;67558;52.166;5.004;2023-07-31T03:01:50;31.50;;;29.40;;
71383;SDS011;67558;52.166;5.004;2023-07-31T03:04:16;33.20;;;31.08;;
71383;SDS011;67558;52.166;5.004;2023-07-31T03:06:41;29.23;;;27.60;;
71383;SDS011;67558;52.166;5.004;2023-07-31T03:09:07;28.73;;;27.10;;
71383;SDS011;67558;52.166;5.004;2023-07-31T03:11:33;32.53;;;30.23;;
71383;SDS011;67558;52.166;5.004;2023-07-31T03:13:59;31.33;;;28.98;;
71383;SDS011;67558;52.166;5.004;2023-07-31T03:16:25;29.80;;;27.65;;
71383;SDS011;67558;52.166;5.004;2023-07-31T03:18:51;29.30;;;27.40;;
71383;SDS011;67558;52.166;5.004;2023-07-31T03:21:17;29.60;;;27.48;;
71383;SDS011;67558;52.166;5.004;2023-07-31T03:23:43;30.75;;;28.50;;
71383;SDS011;67558;52.166;5.004;2023-07-31T03:26:09;30.52;;;28.63;;
71383;SDS011;67558;52.166;5.004;2023-07-31T03:28:34;28.90;;;26.23;;
71383;SDS011;67558;52.166;5.004;2023-07-31T03:31:00;35.08;;;32.17;;
71383;SDS011;67558;52.166;5.004;2023-07-31T03:33:26;28.65;;;26.70;;
71383;SDS011;67558;52.166;5.004;2023-07-31T03:35:52;33.47;;;31.20;;
71383;SDS011;67558;52.166;5.004;2023-07-31T03:38:18;30.88;;;28.88;;
71383;SDS011;67558;52.166;5.004;2023-07-31T03:40:44;30.15;;;28.40;;
71383;SDS011;67558;52.166;5.004;2023-07-31T03:43:10;27.42;;;25.90;;
71383;SDS011;67558;52.166;5.004;2023-07-31T03:45:37;33.50;;;31.33;;
71383;SDS011;67558;52.166;5.004;2023-07-31T03:48:03;33.15;;;31.15;;
71383;SDS011;67558;52.166;5.004;2023-07-31T03:50:29;33.30;;;31.20;;
71383;SDS011;67558;52.166;5.004;2023-07-31T03:52:55;29.50;;;27.42;;
71383;SDS011;67558;52.166;5.004;2023-07-31T03:55:21;31.52;;;29.38;;
71383;SDS011;67558;52.166;5.004;2023-07-31T03:57:47;32.35;;;30.20;;
71383;SDS011;67558;52.166;5.004;2023-07-31T04:00:13;28.98;;;26.83;;
71383;SDS011;67558;52.166;5.004;2023-07-31T04:02:39;32.50;;;30.27;;
71383;SDS011;67558;52.166;5.004;2023-07-31T04:05:05;32.15;;;29.85;;
71383;SDS011;67558;52.166;5.004;2023-07-31T04:07:31;29.55;;;27.13;;
71383;SDS011;67558;52.166;5.004;2023-07-31T04:09:57;29.63;;;27.23;;
71383;SDS011;67558;52.166;5.004;2023-07-31T04:12:23;31.80;;;29.20;;
71383;SDS011;67558;52.166;5.004;2023-07-31T04:14:49;35.28;;;33.33;;
71383;SDS011;67558;52.166;5.004;2023-07-31T04:17:15;32.58;;;30.55;;
71383;SDS011;67558;52.166;5.004;2023-07-31T04:19:41;34.20;;;32.15;;
71383;SDS011;67558;52.166;5.004;2023-07-31T04:22:07;30.52;;;28.52;;
71383;SDS011;67558;52.166;5.004;2023-07-31T04:24:33;31.63;;;29.92;;
71383;SDS011;67558;52.166;5.004;2023-07-31T04:26:59;30.30;;;28.17;;
71383;SDS011;67558;52.166;5.004;2023-07-31T04:29:24;28.73;;;27.08;;
71383;SDS011;67558;52.166;5.004;2023-07-31T04:31:50;32.40;;;30.42;;
71383;SDS011;67558;52.166;5.004;2023-07-31T04:34:16;29.75;;;27.88;;
71383;SDS011;67558;52.166;5.004;2023-07-31T04:36:42;29.35;;;27.63;;
71383;SDS011;67558;52.166;5.004;2023-07-31T04:39:08;30.08;;;28.40;;
71383;SDS011;67558;52.166;5.004;2023-07-31T04:41:34;32.40;;;30.65;;
71383;SDS011;67558;52.166;5.004;2023-07-31T04:44:00;29.13;;;27.45;;
71383;SDS011;67558;52.166;5.004;2023-07-31T04:46:27;30.48;;;28.10;;
71383;SDS011;67558;52.166;5.004;2023-07-31T04:48:53;33.22;;;31.25;;
71383;SDS011;67558;52.166;5.004;2023-07-31T04:51:19;30.55;;;28.63;;
71383;SDS011;67558;52.166;5.004;2023-07-31T04:53:46;32.30;;;30.27;;
71383;SDS011;67558;52.166;5.004;2023-07-31T04:56:12;28.25;;;26.75;;
71383;SDS011;67558;52.166;5.004;2023-07-31T04:58:38;29.52;;;27.92;;
71383;SDS011;67558;52.166;5.004;2023-07-31T05:01:04;33.13;;;31.17;;
71383;SDS011;67558;52.166;5.004;2023-07-31T05:03:30;26.70;;;25.27;;
71383;SDS011;67558;52.166;5.004;2023-07-31T05:05:55;38.42;;;36.53;;
71383;SDS011;67558;52.166;5.004;2023-07-31T05:08:21;34.25;;;32.63;;
71383;SDS011;67558;52.166;5.004;2023-07-31T05:10:47;26.63;;;25.23;;
71383;SDS011;67558;52.166;5.004;2023-07-31T05:13:14;30.15;;;28.58;;
71383;SDS011;67558;52.166;5.004;2023-07-31T05:15:40;31.13;;;29.83;;
71383;SDS011;67558;52.166;5.004;2023-07-31T05:18:06;32.53;;;30.92;;
71383;SDS011;67558;52.166;5.004;2023-07-31T05:20:32;30.35;;;29.02;;
71383;SDS011;67558;52.166;5.004;2023-07-31T05:22:58;29.33;;;27.98;;
71383;SDS011;67558;52.166;5.004;2023-07-31T05:25:24;28.13;;;26.85;;
71383;SDS011;67558;52.166;5.004;2023-07-31T05:27:49;27.98;;;26.35;;
71383;SDS011;67558;52.166;5.004;2023-07-31T05:30:16;29.20;;;27.92;;
71383;SDS011;67558;52.166;5.004;2023-07-31T05:32:42;30.23;;;28.98;;
71383;SDS011;67558;52.166;5.004;2023-07-31T05:35:07;25.25;;;24.05;;
71383;SDS011;67558;52.166;5.004;2023-07-31T05:37:34;27.23;;;25.65;;
71383;SDS011;67558;52.166;5.004;2023-07-31T05:40:00;28.25;;;27.10;;
71383;SDS011;67558;52.166;5.004;2023-07-31T05:42:25;26.88;;;25.85;;
71383;SDS011;67558;52.166;5.004;2023-07-31T05:44:51;29.77;;;28.70;;
71383;SDS011;67558;52.166;5.004;2023-07-31T05:47:16;28.52;;;27.23;;
71383;SDS011;67558;52.166;5.004;2023-07-31T05:49:42;26.27;;;24.95;;
71383;SDS011;67558;52.166;5.004;2023-07-31T05:52:07;31.45;;;29.67;;
71383;SDS011;67558;52.166;5.004;2023-07-31T05:54:32;30.63;;;29.05;;
71383;SDS011;67558;52.166;5.004;2023-07-31T05:56:58;28.50;;;27.15;;
71383;SDS011;67558;52.166;5.004;2023-07-31T05:59:24;27.38;;;25.83;;
71383;SDS011;67558;52.166;5.004;2023-07-31T06:01:50;30.38;;;28.63;;
71383;SDS011;67558;52.166;5.004;2023-07-31T06:04:18;24.83;;;23.55;;
71383;SDS011;67558;52.166;5.004;2023-07-31T06:06:43;26.33;;;25.08;;
71383;SDS011;67558;52.166;5.004;2023-07-31T06:09:09;26.75;;;25.40;;
71383;SDS011;67558;52.166;5.004;2023-07-31T06:11:34;32.38;;;31.08;;
71383;SDS011;67558;52.166;5.004;2023-07-31T06:13:59;31.02;;;29.58;;
71383;SDS011;67558;52.166;5.004;2023-07-31T06:16:25;28.20;;;26.95;;
71383;SDS011;67558;52.166;5.004;2023-07-31T06:18:50;27.70;;;26.60;;
71383;SDS011;67558;52.166;5.004;2023-07-31T06:21:16;30.25;;;29.13;;
71383;SDS011;67558;52.166;5.004;2023-07-31T06:23:42;31.70;;;30.33;;
71383;SDS011;67558;52.166;5.004;2023-07-31T06:26:07;30.83;;;29.67;;
71383;SDS011;67558;52.166;5.004;2023-07-31T06:28:33;29.23;;;28.13;;
71383;SDS011;67558;52.166;5.004;2023-07-31T06:30:58;29.55;;;28.15;;
71383;SDS011;67558;52.166;5.004;2023-07-31T06:33:24;26.58;;;25.58;;
71383;SDS011;67558;52.166;5.004;2023-07-31T06:35:49;27.15;;;26.05;;
71383;SDS011;67558;52.166;5.004;2023-07-31T06:38:15;27.90;;;26.67;;
71383;SDS011;67558;52.166;5.004;2023-07-31T06:40:40;25.80;;;25.00;;
71383;SDS011;67558;52.166;5.004;2023-07-31T06:43:06;27.45;;;26.38;;
71383;SDS011;67558;52.166;5.004;2023-07-31T06:45:35;27.75;;;26.55;;
71383;SDS011;67558;52.166;5.004;2023-07-31T06:48:02;25.33;;;24.42;;
71383;SDS011;67558;52.166;5.004;2023-07-31T06:50:28;25.58;;;24.67;;
71383;SDS011;67558;52.166;5.004;2023-07-31T06:52:54;30.30;;;29.15;;
71383;SDS011;67558;52.166;5.004;2023-07-31T06:55:20;27.90;;;26.75;;
71383;SDS011;67558;52.166;5.004;2023-07-31T06:57:47;26.85;;;25.95;;
71383;SDS011;67558;52.166;5.004;2023-07-31T07:00:14;26.52;;;25.63;;
71383;SDS011;67558;52.166;5.004;2023-07-31T07:02:40;30.48;;;29.20;;
71383;SDS011;67558;52.166;5.004;2023-07-31T07:05:06;27.88;;;26.73;;
71383;SDS011;67558;52.166;5.004;2023-07-31T07:07:32;28.80;;;27.70;;
71383;SDS011;67558;52.166;5.004;2023-07-31T07:09:57;29.15;;;28.13;;
71383;SDS011;67558;52.166;5.004;2023-07-31T07:12:24;29.17;;;27.98;;
71383;SDS011;67558;52.166;5.004;2023-07-31T07:14:50;29.80;;;28.80;;
71383;SDS011;67558;52.166;5.004;2023-07-31T07:17:17;28.52;;;27.63;;
71383;SDS011;67558;52.166;5.004;2023-07-31T07:19:43;26.38;;;25.38;;
71383;SDS011;67558;52.166;5.004;2023-07-31T07:22:09;27.65;;;26.55;;
71383;SDS011;67558;52.166;5.004;2023-07-31T07:24:35;28.08;;;26.90;;
71383;SDS011;67558;52.166;5.004;2023-07-31T07:27:00;28.77;;;27.88;;
71383;SDS011;67558;52.166;5.004;2023-07-31T07:29:26;28.65;;;27.65;;
71383;SDS011;67558;52.166;5.004;2023-07-31T07:31:51;30.02;;;29.10;;
71383;SDS011;67558;52.166;5.004;2023-07-31T07:34:17;27.67;;;26.65;;
71383;SDS011;67558;52.166;5.004;2023-07-31T07:36:42;27.17;;;26.25;;
71383;SDS011;67558;52.166;5.004;2023-07-31T07:39:08;27.52;;;26.40;;
71383;SDS011;67558;52.166;5.004;2023-07-31T07:41:35;27.55;;;26.55;;
71383;SDS011;67558;52.166;5.004;2023-07-31T07:44:00;28.77;;;27.77;;
71383;SDS011;67558;52.166;5.004;2023-07-31T07:46:25;28.90;;;28.00;;
71383;SDS011;67558;52.166;5.004;2023-07-31T07:48:51;29.80;;;28.75;;
71383;SDS011;67558;52.166;5.004;2023-07-31T07:51:16;26.77;;;25.88;;
71383;SDS011;67558;52.166;5.004;2023-07-31T07:53:41;24.27;;;23.52;;
71383;SDS011;67558;52.166;5.004;2023-07-31T07:56:07;26.38;;;25.50;;
71383;SDS011;67558;52.166;5.004;2023-07-31T07:58:32;28.42;;;27.52;;
71383;SDS011;67558;52.166;5.004;2023-07-31T08:00:57;27.33;;;26.50;;
71383;SDS011;67558;52.166;5.004;2023-07-31T08:03:23;29.48;;;28.58;;
71383;SDS011;67558;52.166;5.004;2023-07-31T08:05:48;25.80;;;24.90;;
71383;SDS011;67558;52.166;5.004;2023-07-31T08:08:14;28.00;;;27.10;;
71383;SDS011;67558;52.166;5.004;2023-07-31T08:10:41;27.35;;;26.40;;
71383;SDS011;67558;52.166;5.004;2023-07-31T08:13:07;31.52;;;30.50;;
71383;SDS011;67558;52.166;5.004;2023-07-31T08:15:32;32.88;;;31.65;;
71383;SDS011;67558;52.166;5.004;2023-07-31T08:17:57;31.27;;;30.35;;
71383;SDS011;67558;52.166;5.004;2023-07-31T08:20:23;28.63;;;27.63;;
71383;SDS011;67558;52.166;5.004;2023-07-31T08:22:48;28.40;;;27.60;;
71383;SDS011;67558;52.166;5.004;2023-07-31T08:25:13;29.40;;;28.30;;
71383;SDS011;67558;52.166;5.004;2023-07-31T08:27:42;28.02;;;27.13;;
71383;SDS011;67558;52.166;5.004;2023-07-31T08:30:08;31.30;;;30.40;;
71383;SDS011;67558;52.166;5.004;2023-07-31T08:32:34;34.67;;;33.67;;
71383;SDS011;67558;52.166;5.004;2023-07-31T08:34:59;31.20;;;30.30;;
71383;SDS011;67558;52.166;5.004;2023-07-31T08:37:25;31.17;;;30.27;;
71383;SDS011;67558;52.166;5.004;2023-07-31T08:39:50;27.60;;;26.80;;
71383;SDS011;67558;52.166;5.004;2023-07-31T08:42:16;27.58;;;26.67;;
71383;SDS011;67558;52.166;5.004;2023-07-31T08:44:41;27.02;;;26.25;;
71383;SDS011;67558;52.166;5.004;2023-07-31T08:47:08;32.47;;;31.50;;
71383;SDS011;67558;52.166;5.004;2023-07-31T08:49:35;31.00;;;29.85;;
71383;SDS011;67558;52.166;5.004;2023-07-31T08:52:03;26.75;;;25.95;;
71383;SDS011;67558;52.166;5.004;2023-07-31T08:54:29;30.42;;;29.55;;
71383;SDS011;67558;52.166;5.004;2023-07-31T08:56:56;28.63;;;27.80;;
71383;SDS011;67558;52.166;5.004;2023-07-31T08:59:22;31.50;;;30.63;;
71383;SDS011;67558;52.166;5.004;2023-07-31T09:01:49;28.45;;;27.65;;
71383;SDS011;67558;52.166;5.004;2023-07-31T09:04:18;29.88;;;28.88;;
71383;SDS011;67558;52.166;5.004;2023-07-31T09:06:45;26.70;;;25.90;;
71383;SDS011;67558;52.166;5.004;2023-07-31T09:09:12;32.90;;;32.00;;
71383;SDS011;67558;52.166;5.004;2023-07-31T09:11:37;33.20;;;32.17;;
71383;SDS011;67558;52.166;5.004;2023-07-31T09:14:03;31.98;;;31.08;;
71383;SDS011;67558;52.166;5.004;2023-07-31T09:16:33;27.08;;;26.25;;
71383;SDS011;67558;52.166;5.004;2023-07-31T09:18:59;30.80;;;29.92;;
71383;SDS011;67558;52.166;5.004;2023-07-31T09:21:27;29.38;;;28.38;;
71383;SDS011;67558;52.166;5.004;2023-07-31T09:23:52;30.88;;;29.98;;
71383;SDS011;67558;52.166;5.004;2023-07-31T09:26:37;31.65;;;30.77;;
71383;SDS011;67558;52.166;5.004;2023-07-31T09:29:05;31.05;;;30.17;;
71383;SDS011;67558;52.166;5.004;2023-07-31T09:31:39;29.20;;;28.20;;
71383;SDS011;67558;52.166;5.004;2023-07-31T09:34:08;32.17;;;31.27;;
71383;SDS011;67558;52.166;5.004;2023-07-31T09:39:14;36.13;;;35.13;;
71383;SDS011;67558;52.166;5.004;2023-07-31T09:41:45;30.05;;;29.15;;
71383;SDS011;67558;52.166;5.004;2023-07-31T09:44:12;30.70;;;29.80;;
71383;SDS011;67558;52.166;5.004;2023-07-31T09:46:38;33.42;;;32.50;;
71383;SDS011;67558;52.166;5.004;2023-07-31T09:51:30;30.00;;;29.10;;
71383;SDS011;67558;52.166;5.004;2023-07-31T09:53:56;31.98;;;31.05;;
71383;SDS011;67558;52.166;5.004;2023-07-31T09:56:21;30.23;;;29.13;;
71383;SDS011;67558;52.166;5.004;2023-07-31T09:58:48;35.42;;;34.42;;
71383;SDS011;67558;52.166;5.004;2023-07-31T10:01:15;32.67;;;31.75;;
71383;SDS011;67558;52.166;5.004;2023-07-31T10:03:40;31.98;;;31.05;;
71383;SDS011;67558;52.166;5.004;2023-07-31T10:06:09;31.13;;;30.23;;
71383;SDS011;67558;52.166;5.004;2023-07-31T10:08:35;28.83;;;27.92;;
71383;SDS011;67558;52.166;5.004;2023-07-31T10:11:02;31.40;;;30.40;;
71383;SDS011;67558;52.166;5.004;2023-07-31T10:13:29;33.15;;;32.05;;
71383;SDS011;67558;52.166;5.004;2023-07-31T10:15:58;31.63;;;30.50;;
71383;SDS011;67558;52.166;5.004;2023-07-31T10:18:24;34.13;;;33.13;;
71383;SDS011;67558;52.166;5.004;2023-07-31T10:20:51;31.90;;;30.90;;
71383;SDS011;67558;52.166;5.004;2023-07-31T10:23:17;33.28;;;31.98;;
71383;SDS011;67558;52.166;5.004;2023-07-31T10:25:43;34.53;;;33.38;;
71383;SDS011;67558;52.166;5.004;2023-07-31T10:28:09;32.55;;;31.45;;
71383;SDS011;67558;52.166;5.004;2023-07-31T10:30:36;34.00;;;32.95;;
71383;SDS011;67558;52.166;5.004;2023-07-31T10:33:03;34.83;;;33.63;;
71383;SDS011;67558;52.166;5.004;2023-07-31T10:35:30;35.70;;;34.47;;
71383;SDS011;67558;52.166;5.004;2023-07-31T10:37:55;35.58;;;34.42;;
71383;SDS011;67558;52.166;5.004;2023-07-31T10:40:34;33.20;;;32.17;;
71383;SDS011;67558;52.166;5.004;2023-07-31T10:43:01;30.90;;;29.90;;
71383;SDS011;67558;52.166;5.004;2023-07-31T10:48:05;34.13;;;32.90;;
71383;SDS011;67558;52.166;5.004;2023-07-31T10:50:33;34.83;;;33.53;;
71383;SDS011;67558;52.166;5.004;2023-07-31T10:53:03;35.85;;;34.58;;
71383;SDS011;67558;52.166;5.004;2023-07-31T11:00:36;36.47;;;35.33;;
71383;SDS011;67558;52.166;5.004;2023-07-31T11:03:08;32.45;;;31.33;;
71383;SDS011;67558;52.166;5.004;2023-07-31T11:05:53;32.00;;;30.98;;
71383;SDS011;67558;52.166;5.004;2023-07-31T11:08:29;33.25;;;32.05;;
71383;SDS011;67558;52.166;5.004;2023-07-31T11:13:27;33.97;;;32.78;;
71383;SDS011;67558;52.166;5.004;2023-07-31T11:15:53;34.30;;;33.17;;
71383;SDS011;67558;52.166;5.004;2023-07-31T11:18:18;34.70;;;33.45;;
71383;SDS011;67558;52.166;5.004;2023-07-31T11:20:44;33.65;;;32.53;;
71383;SDS011;67558;52.166;5.004;2023-07-31T11:23:09;35.80;;;34.42;;
71383;SDS011;67558;52.166;5.004;2023-07-31T11:25:35;32.88;;;31.67;;
71383;SDS011;67558;52.166;5.004;2023-07-31T11:28:06;29.77;;;28.73;;
71383;SDS011;67558;52.166;5.004;2023-07-31T11:30:36;36.17;;;34.92;;
71383;SDS011;67558;52.166;5.004;2023-07-31T11:33:02;30.70;;;29.50;;
71383;SDS011;67558;52.166;5.004;2023-07-31T11:35:32;33.55;;;32.30;;
71383;SDS011;67558;52.166;5.004;2023-07-31T11:37:59;39.63;;;38.33;;
71383;SDS011;67558;52.166;5.004;2023-07-31T11:40:24;39.80;;;38.33;;
71383;SDS011;67558;52.166;5.004;2023-07-31T11:42:55;35.47;;;34.13;;
71383;SDS011;67558;52.166;5.004;2023-07-31T11:45:26;33.63;;;32.42;;
71383;SDS011;67558;52.166;5.004;2023-07-31T11:47:53;36.15;;;34.78;;
71383;SDS011;67558;52.166;5.004;2023-07-31T11:50:20;37.63;;;36.22;;
71383;SDS011;67558;52.166;5.004;2023-07-31T11:52:47;35.25;;;34.05;;
71383;SDS011;67558;52.166;5.004;2023-07-31T11:55:15;33.72;;;32.40;;
71383;SDS011;67558;52.166;5.004;2023-07-31T11:57:42;32.13;;;30.92;;
71383;SDS011;67558;52.166;5.004;2023-07-31T12:00:10;40.03;;;38.47;;
71383;SDS011;67558;52.166;5.004;2023-07-31T12:02:38;36.03;;;34.72;;
71383;SDS011;67558;52.166;5.004;2023-07-31T12:05:05;37.22;;;35.63;;
71383;SDS011;67558;52.166;5.004;2023-07-31T12:07:46;36.13;;;34.50;;
71383;SDS011;67558;52.166;5.004;2023-07-31T12:10:23;33.28;;;32.08;;
71383;SDS011;67558;52.166;5.004;2023-07-31T12:12:56;35.53;;;34.08;;
71383;SDS011;67558;52.166;5.004;2023-07-31T12:15:29;32.45;;;31.05;;
71383;SDS011;67558;52.166;5.004;2023-07-31T12:18:05;36.47;;;34.95;;
71383;SDS011;67558;52.166;5.004;2023-07-31T12:20:35;39.25;;;37.72;;
71383;SDS011;67558;52.166;5.004;2023-07-31T12:23:06;34.83;;;33.42;;
71383;SDS011;67558;52.166;5.004;2023-07-31T12:25:32;35.45;;;34.15;;
71383;SDS011;67558;52.166;5.004;2023-07-31T12:28:03;36.22;;;34.65;;
71383;SDS011;67558;52.166;5.004;2023-07-31T12:30:34;34.75;;;33.45;;
71383;SDS011;67558;52.166;5.004;2023-07-31T12:33:06;38.20;;;36.55;;
71383;SDS011;67558;52.166;5.004;2023-07-31T12:35:38;37.17;;;35.80;;
71383;SDS011;67558;52.166;5.004;2023-07-31T12:38:06;40.72;;;39.33;;
71383;SDS011;67558;52.166;5.004;2023-07-31T12:40:32;39.72;;;38.22;;
71383;SDS011;67558;52.166;5.004;2023-07-31T12:43:00;39.45;;;37.97;;
71383;SDS011;67558;52.166;5.004;2023-07-31T12:45:28;38.10;;;36.70;;
71383;SDS011;67558;52.166;5.004;2023-07-31T12:47:53;34.00;;;32.80;;
71383;SDS011;67558;52.166;5.004;2023-07-31T12:50:19;42.75;;;41.30;;
71383;SDS011;67558;52.166;5.004;2023-07-31T12:52:44;32.78;;;31.63;;
71383;SDS011;67558;52.166;5.004;2023-07-31T12:55:11;35.70;;;34.50;;
71383;SDS011;67558;52.166;5.004;2023-07-31T12:57:38;37.53;;;36.25;;
71383;SDS011;67558;52.166;5.004;2023-07-31T13:00:05;38.63;;;37.20;;
71383;SDS011;67558;52.166;5.004;2023-07-31T13:02:32;39.17;;;37.75;;
71383;SDS011;67558;52.166;5.004;2023-07-31T13:04:57;37.08;;;35.78;;
71383;SDS011;67558;52.166;5.004;2023-07-31T13:07:22;40.88;;;39.38;;
71383;SDS011;67558;52.166;5.004;2023-07-31T13:09:48;34.95;;;33.65;;
71383;SDS011;67558;52.166;5.004;2023-07-31T13:12:13;41.72;;;40.38;;
71383;SDS011;67558;52.166;5.004;2023-07-31T13:14:39;35.10;;;33.88;;
71383;SDS011;67558;52.166;5.004;2023-07-31T13:17:05;39.47;;;37.85;;
71383;SDS011;67558;52.166;5.004;2023-07-31T13:19:31;34.90;;;33.60;;
71383;SDS011;67558;52.166;5.004;2023-07-31T13:21:57;38.50;;;37.08;;
71383;SDS011;67558;52.166;5.004;2023-07-31T13:24:23;37.33;;;35.88;;
71383;SDS011;67558;52.166;5.004;2023-07-31T13:26:48;36.95;;;35.63;;
71383;SDS011;67558;52.166;5.004;2023-07-31T13:29:14;36.30;;;34.78;;
71383;SDS011;67558;52.166;5.004;2023-07-31T13:31:39;34.47;;;33.22;;
71383;SDS011;67558;52.166;5.004;2023-07-31T13:34:04;34.83;;;33.53;;
71383;SDS011;67558;52.166;5.004;2023-07-31T13:36:29;40.45;;;39.05;;
71383;SDS011;67558;52.166;5.004;2023-07-31T13:38:55;36.13;;;34.72;;
71383;SDS011;67558;52.166;5.004;2023-07-31T13:41:20;33.63;;;32.50;;
71383;SDS011;67558;52.166;5.004;2023-07-31T13:43:45;34.55;;;33.47;;
71383;SDS011;67558;52.166;5.004;2023-07-31T13:46:11;35.28;;;34.22;;
71383;SDS011;67558;52.166;5.004;2023-07-31T13:48:36;35.58;;;34.47;;
71383;SDS011;67558;52.166;5.004;2023-07-31T13:51:02;36.50;;;35.22;;
71383;SDS011;67558;52.166;5.004;2023-07-31T13:53:28;34.28;;;33.28;;
71383;SDS011;67558;52.166;5.004;2023-07-31T13:55:54;34.00;;;33.03;;
71383;SDS011;67558;52.166;5.004;2023-07-31T13:58:20;35.60;;;34.58;;
71383;SDS011;67558;52.166;5.004;2023-07-31T14:00:45;42.05;;;40.90;;
71383;SDS011;67558;52.166;5.004;2023-07-31T14:03:10;33.85;;;32.85;;
71383;SDS011;67558;52.166;5.004;2023-07-31T14:05:36;31.88;;;30.90;;
71383;SDS011;67558;52.166;5.004;2023-07-31T14:08:01;33.17;;;32.17;;
71383;SDS011;67558;52.166;5.004;2023-07-31T14:10:27;36.50;;;35.40;;
71383;SDS011;67558;52.166;5.004;2023-07-31T14:12:52;36.92;;;35.83;;
71383;SDS011;67558;52.166;5.004;2023-07-31T14:15:17;35.70;;;34.70;;
71383;SDS011;67558;52.166;5.004;2023-07-31T14:17:42;37.75;;;36.65;;
71383;SDS011;67558;52.166;5.004;2023-07-31T14:20:08;35.72;;;34.63;;
71383;SDS011;67558;52.166;5.004;2023-07-31T14:22:35;34.38;;;33.33;;
71383;SDS011;67558;52.166;5.004;2023-07-31T14:25:01;33.90;;;32.85;;
71383;SDS011;67558;52.166;5.004;2023-07-31T14:27:27;32.00;;;31.10;;
71383;SDS011;67558;52.166;5.004;2023-07-31T14:29:53;34.30;;;33.30;;
71383;SDS011;67558;52.166;5.004;2023-07-31T14:32:18;36.17;;;35.13;;
71383;SDS011;67558;52.166;5.004;2023-07-31T14:34:44;29.70;;;28.73;;
71383;SDS011;67558;52.166;5.004;2023-07-31T14:37:10;35.88;;;34.78;;